Details From DNMA - MAIDUGURI
To DAAT - TAMANRASSET
Flight Number -
Tags decoded
Created
Modified
Stats Distance 846 nm / 1,567 km
Max Altitude 0 ft / 0 m
Waypoints 4
Social Downloads 1
Likes 0
Share VATSIM

Download

Looking for another format? Having issues loading an existing format? Contact us
Advertisement - Login to hide

Notes

Requested: DNMA UA605 GALNA UG854 ZR UA604 AS DAAT Unmatched points: UA605 GALNA UG854 UA604

Route

DNMA ZR AS DAAT

ID Type Via Altitude (ft/m) Position (lat/lon) Dist (leg/tot) Name
O DNMA APT - 0 / 0 11.85524 / 13.08129 - / 0 nm MAIDUGURI
ZR VOR - 0 / 0 13.77058 / 8.97239 266 / 266 nm ZINDER VOR
AS NDB - 0 / 0 16.95633 / 7.97483 199 / 466 nm AGADES NDB
O DAAT APT - 0 / 0 22.81038 / 5.44440 379 / 846 nm TAMANRASSET

Altitude Profile

Advertisement - Login to hide

Weather


0- 5 10 15 20 25 30 35+ Temperature / °C

Clouds and Precipitation
Forecast for 2018-12-16 18:00 UTC. Updated 2 hours ago

Ground ~20,000 ft ~40,000 ft Winds

DNMA

Details ICAO DNMA (MIU)
Name MAIDUGURI
Region Nigeria
Timezone Africa/Lagos (UTC+1.0)
Stats Elevation 1,099 ft / 335 m (AMSL)
Location 11.855200° 13.081300°
Runways 1
Magnetic Variation 0.882° E

METAR

Not found

TAF

TAF DNMA 161550Z 1618/1724 09010KT CAVOK

Decode

Departure Runways

ID Width Length Bearing (true/mag) Surface Threshold Overrun Markings Lighting
05 197 ft / 60 m 9,866 ft / 3,007 m 46.51° / 45.62° ASPHALT 0 ft / 0 m 333 ft / 102 m PREC-APP CENTERLINE EDGE THRESHOLD ALSF-II TDZ
23 197 ft / 60 m 9,866 ft / 3,007 m 226.51° / 225.63° ASPHALT 0 ft / 0 m 336 ft / 102 m APP CENTERLINE EDGE THRESHOLD ALSF-II TDZ

DAAT

Details ICAO DAAT (TMR)
Name TAMANRASSET
Region Algeria
Timezone Africa/Algiers (UTC+1.0)
Stats Elevation 4,518 ft / 1,377 m (AMSL)
Location 22.810400° 5.444400°
Runways 2
Magnetic Variation 0.687° E

METAR

DAAT 161730Z VRB02KT CAVOK 17/M14 Q1026

Decode

TAF

TAF DAAT 161700Z 1618/1718 26008KT CAVOK BECMG 1709/1712 18010KT

Decode

Destination Runways

ID Width Length Bearing (true/mag) Surface Threshold Overrun Markings Lighting
02 148 ft / 45 m 11,884 ft / 3,622 m 22.21° / 21.53° ASPHALT 0 ft / 0 m 0 ft / 0 m APP EDGE THRESHOLD
08 148 ft / 45 m 10,169 ft / 3,099 m 81.74° / 81.05° ASPHALT 0 ft / 0 m 0 ft / 0 m APP
20 148 ft / 45 m 11,884 ft / 3,622 m 202.22° / 201.53° ASPHALT 0 ft / 0 m 0 ft / 0 m APP EDGE THRESHOLD
26 148 ft / 45 m 10,169 ft / 3,099 m 261.75° / 261.07° ASPHALT 0 ft / 0 m 0 ft / 0 m APP

Popular Alternatives